Time;durP1;ratioP1;P1;durP2;ratioP2;P2;SDS_P1;SDS_P2;PMS_P1;PMS_P2;Temp;Humidity;BMP_temperature;BMP_pressure;BME280_temperature;BME280_humidity;BME280_pressure;Samples;Min_cycle;Max_cycle;Signal;HPM_P1;HPM_P2
2020/12/15 00:00:36;;;;;;;15.77;14.18;;;;;;;;;;5070539;28;20741;-79
2020/12/15 00:03:03;;;;;;;16.13;14.43;;;;;;;;;;5070582;28;20358;-79
2020/12/15 00:05:29;;;;;;;16.27;14.60;;;;;;;;;;5070657;28;20358;-79
2020/12/15 00:07:55;;;;;;;15.95;14.35;;;;;;;;;;5052900;28;20397;-79
2020/12/15 00:10:21;;;;;;;16.40;14.80;;;;;;;;;;5070918;28;20369;-79
2020/12/15 00:12:47;;;;;;;15.98;14.48;;;;;;;;;;5052560;28;20410;-79
2020/12/15 00:15:13;;;;;;;15.90;14.30;;;;;;;;;;5070664;28;20393;-79
2020/12/15 00:17:39;;;;;;;15.30;13.77;;;;;;;;;;5052621;28;20453;-79
2020/12/15 00:20:07;;;;;;;15.95;14.45;;;;;;;;;;5052624;28;20366;-79
2020/12/15 00:22:34;;;;;;;15.97;14.43;;;;;;;;;;5052521;28;20381;-78
2020/12/15 00:25:00;;;;;;;16.73;15.03;;;;;;;;;;5070616;28;20369;-78
2020/12/15 00:27:27;;;;;;;16.30;14.70;;;;;;;;;;5052557;28;20461;-78
2020/12/15 00:29:53;;;;;;;16.60;14.90;;;;;;;;;;5051543;28;20428;-79
2020/12/15 00:32:19;;;;;;;17.05;15.38;;;;;;;;;;5070280;28;20389;-79
2020/12/15 00:34:45;;;;;;;16.77;15.10;;;;;;;;;;5052593;28;20401;-79
2020/12/15 00:37:11;;;;;;;16.92;15.13;;;;;;;;;;5070497;28;20457;-79
2020/12/15 00:39:37;;;;;;;16.63;15.02;;;;;;;;;;5052462;28;20397;-79
2020/12/15 00:42:03;;;;;;;16.38;14.77;;;;;;;;;;5070263;28;20392;-79
2020/12/15 00:44:29;;;;;;;17.02;15.27;;;;;;;;;;5070358;28;20887;-79
2020/12/15 00:46:55;;;;;;;16.65;14.75;;;;;;;;;;5070363;28;20362;-79
2020/12/15 00:49:21;;;;;;;16.50;14.85;;;;;;;;;;5052302;28;20428;-79
2020/12/15 00:51:48;;;;;;;16.60;14.93;;;;;;;;;;5052373;28;20366;-79
2020/12/15 00:54:14;;;;;;;17.02;15.32;;;;;;;;;;5070148;28;20476;-79
2020/12/15 00:56:41;;;;;;;17.02;15.32;;;;;;;;;;5070247;28;20358;-79
2020/12/15 00:59:07;;;;;;;17.40;15.70;;;;;;;;;;5051590;28;20374;-79
2020/12/15 01:01:33;;;;;;;17.08;15.43;;;;;;;;;;5052483;28;20465;-79
2020/12/15 01:03:59;;;;;;;16.27;14.68;;;;;;;;;;5052231;28;20912;-79
2020/12/15 01:06:25;;;;;;;16.23;14.63;;;;;;;;;;5070231;28;20467;-79
2020/12/15 01:08:51;;;;;;;17.25;15.52;;;;;;;;;;5052132;28;20400;-79
2020/12/15 01:11:17;;;;;;;16.90;15.20;;;;;;;;;;5051943;28;20374;-79
2020/12/15 01:13:43;;;;;;;16.30;14.70;;;;;;;;;;5051838;28;20398;-79
2020/12/15 01:16:09;;;;;;;16.63;14.95;;;;;;;;;;5052399;28;20369;-79
2020/12/15 01:18:35;;;;;;;16.33;14.63;;;;;;;;;;5070499;28;20449;-79
2020/12/15 01:21:02;;;;;;;17.33;15.52;;;;;;;;;;5069711;28;20457;-79
2020/12/15 01:23:29;;;;;;;16.65;14.95;;;;;;;;;;5051902;28;20856;-79
2020/12/15 01:25:55;;;;;;;17.00;15.30;;;;;;;;;;5052038;28;20487;-79
2020/12/15 01:28:21;;;;;;;17.25;15.52;;;;;;;;;;5051887;28;20373;-79
2020/12/15 01:30:47;;;;;;;17.55;15.75;;;;;;;;;;5051808;28;20363;-79
2020/12/15 01:33:13;;;;;;;17.58;15.77;;;;;;;;;;5051868;28;20398;-78
2020/12/15 01:35:39;;;;;;;16.65;15.05;;;;;;;;;;5051928;28;20355;-79
2020/12/15 01:38:05;;;;;;;16.53;14.83;;;;;;;;;;5051932;28;20362;-79
2020/12/15 01:40:31;;;;;;;16.50;14.80;;;;;;;;;;5071573;28;20354;-80
2020/12/15 01:42:57;;;;;;;16.63;14.93;;;;;;;;;;5055055;28;20732;-79
2020/12/15 01:45:24;;;;;;;17.20;15.40;;;;;;;;;;5073303;28;20468;-79
2020/12/15 01:47:50;;;;;;;15.98;14.38;;;;;;;;;;5055277;28;20880;-79
2020/12/15 01:50:17;;;;;;;17.03;15.33;;;;;;;;;;5072832;28;20429;-80
2020/12/15 01:52:44;;;;;;;16.88;15.18;;;;;;;;;;5072940;28;20405;-79
2020/12/15 01:55:10;;;;;;;16.75;15.05;;;;;;;;;;5055138;28;20419;-80
2020/12/15 01:57:39;;;;;;;16.95;15.27;;;;;;;;;;5054772;28;20386;-80
2020/12/15 02:00:05;;;;;;;17.33;15.63;;;;;;;;;;5054769;28;20368;-79
2020/12/15 02:02:31;;;;;;;18.35;16.45;;;;;;;;;;5055014;28;20744;-79
2020/12/15 02:04:57;;;;;;;16.98;15.35;;;;;;;;;;5054928;28;20354;-79
2020/12/15 02:07:24;;;;;;;17.50;15.77;;;;;;;;;;5072895;28;20450;-78
2020/12/15 02:09:50;;;;;;;16.95;15.30;;;;;;;;;;5054617;28;20370;-79
2020/12/15 02:12:16;;;;;;;17.03;15.30;;;;;;;;;;5054745;28;20378;-80
2020/12/15 02:14:45;;;;;;;16.75;15.15;;;;;;;;;;5054737;28;20398;-79
2020/12/15 02:17:14;;;;;;;16.67;14.97;;;;;;;;;;5072685;28;20364;-79
2020/12/15 02:19:40;;;;;;;17.47;15.70;;;;;;;;;;5072345;28;20354;-79
2020/12/15 02:22:06;;;;;;;16.75;15.05;;;;;;;;;;5072551;28;20373;-79
2020/12/15 02:24:32;;;;;;;16.73;15.02;;;;;;;;;;5054405;28;20857;-80
2020/12/15 02:26:58;;;;;;;16.98;15.27;;;;;;;;;;5054849;28;20406;-80
2020/12/15 02:29:24;;;;;;;18.10;16.40;;;;;;;;;;5072318;28;20435;-79
2020/12/15 02:31:51;;;;;;;17.55;15.82;;;;;;;;;;5072455;28;20362;-80
2020/12/15 02:34:17;;;;;;;17.23;15.53;;;;;;;;;;5072358;28;20464;-79
2020/12/15 02:36:43;;;;;;;19.13;17.13;;;;;;;;;;5054645;28;20362;-79
2020/12/15 02:39:09;;;;;;;17.73;15.88;;;;;;;;;;5053909;28;20694;-79
2020/12/15 02:41:35;;;;;;;18.23;16.08;;;;;;;;;;5054702;28;20385;-79
2020/12/15 02:44:01;;;;;;;17.90;16.10;;;;;;;;;;5054317;28;20366;-79
2020/12/15 02:46:27;;;;;;;16.80;15.20;;;;;;;;;;5054629;28;20362;-79
2020/12/15 02:48:54;;;;;;;17.45;15.65;;;;;;;;;;5054143;28;20419;-79
2020/12/15 02:51:21;;;;;;;17.65;15.95;;;;;;;;;;5071165;28;20354;-80
2020/12/15 02:53:46;;;;;;;17.23;15.60;;;;;;;;;;5053648;28;20393;-80
2020/12/15 02:56:22;;;;;;;17.40;15.73;;;;;;;;;;5054244;28;20366;-79
2020/12/15 02:58:49;;;;;;;17.30;15.57;;;;;;;;;;5072001;28;20377;-79
2020/12/15 03:01:16;;;;;;;17.27;15.68;;;;;;;;;;5071603;28;20457;-78
2020/12/15 03:03:42;;;;;;;17.88;16.17;;;;;;;;;;5053921;28;20366;-79
2020/12/15 03:06:08;;;;;;;17.75;15.95;;;;;;;;;;5053894;28;20928;-79
2020/12/15 03:08:34;;;;;;;18.13;16.33;;;;;;;;;;5054006;28;20370;-79
2020/12/15 03:11:00;;;;;;;17.45;15.75;;;;;;;;;;5071754;28;20468;-78
2020/12/15 03:13:26;;;;;;;17.20;15.50;;;;;;;;;;5053629;28;20452;-79
2020/12/15 03:15:52;;;;;;;16.65;15.02;;;;;;;;;;5071896;28;20382;-79
2020/12/15 03:18:18;;;;;;;16.33;14.80;;;;;;;;;;5053787;28;20394;-79
2020/12/15 03:20:48;;;;;;;16.05;14.55;;;;;;;;;;5071445;28;20384;-79
2020/12/15 03:23:16;;;;;;;15.90;14.40;;;;;;;;;;5071617;28;20362;-79
2020/12/15 03:25:42;;;;;;;16.45;14.85;;;;;;;;;;5053571;28;20376;-79
2020/12/15 03:28:08;;;;;;;16.63;14.95;;;;;;;;;;5053574;28;20868;-79
2020/12/15 03:30:34;;;;;;;16.55;14.85;;;;;;;;;;5071123;28;20386;-80
2020/12/15 03:33:01;;;;;;;15.82;14.23;;;;;;;;;;5070983;28;20421;-80
2020/12/15 03:35:27;;;;;;;17.23;15.55;;;;;;;;;;5053187;28;20374;-79
2020/12/15 03:37:54;;;;;;;16.42;14.82;;;;;;;;;;5071098;28;20354;-80
2020/12/15 03:40:20;;;;;;;15.95;14.35;;;;;;;;;;5053218;28;20370;-79
2020/12/15 03:42:47;;;;;;;18.25;16.38;;;;;;;;;;5053072;28;20373;-80
2020/12/15 03:45:13;;;;;;;16.85;15.15;;;;;;;;;;5053231;28;20366;-80
2020/12/15 03:47:39;;;;;;;16.73;15.02;;;;;;;;;;5071065;28;20360;-79
2020/12/15 03:50:07;;;;;;;16.92;15.23;;;;;;;;;;5070754;28;20876;-79
2020/12/15 03:52:35;;;;;;;16.42;14.73;;;;;;;;;;5053048;28;20943;-79
2020/12/15 03:55:01;;;;;;;17.25;15.63;;;;;;;;;;5071072;28;20362;-79
2020/12/15 03:57:27;;;;;;;17.55;15.85;;;;;;;;;;5052750;28;20382;-79
2020/12/15 03:59:53;;;;;;;16.75;15.05;;;;;;;;;;5052798;28;20465;-80
2020/12/15 04:02:19;;;;;;;17.63;15.93;;;;;;;;;;5052686;28;20369;-79
2020/12/15 04:04:45;;;;;;;16.75;15.05;;;;;;;;;;5052088;28;20366;-80
2020/12/15 04:07:11;;;;;;;17.30;15.60;;;;;;;;;;5070756;28;20424;-80
2020/12/15 04:09:37;;;;;;;18.70;16.80;;;;;;;;;;5052966;28;20367;-80
2020/12/15 04:12:03;;;;;;;17.95;16.23;;;;;;;;;;5052721;28;20377;-79
2020/12/15 04:14:29;;;;;;;17.42;15.63;;;;;;;;;;5052583;28;20401;-80
2020/12/15 04:16:55;;;;;;;18.48;16.65;;;;;;;;;;5070807;28;20365;-79
2020/12/15 04:19:21;;;;;;;18.05;16.25;;;;;;;;;;5070575;28;20385;-80
2020/12/15 04:21:47;;;;;;;18.88;16.98;;;;;;;;;;5070781;28;20713;-80
2020/12/15 04:24:13;;;;;;;18.30;16.50;;;;;;;;;;5070537;28;20366;-79
2020/12/15 04:26:39;;;;;;;18.88;16.98;;;;;;;;;;5052765;28;20362;-79
2020/12/15 04:29:05;;;;;;;19.40;17.50;;;;;;;;;;5052245;28;20988;-79
2020/12/15 04:31:31;;;;;;;18.73;16.83;;;;;;;;;;5052424;28;20410;-80
2020/12/15 04:33:57;;;;;;;19.15;17.25;;;;;;;;;;5070394;28;20413;-80
2020/12/15 04:36:24;;;;;;;19.88;17.88;;;;;;;;;;5070491;28;20388;-79
2020/12/15 04:38:50;;;;;;;20.90;18.80;;;;;;;;;;5052563;28;20405;-79
2020/12/15 04:41:16;;;;;;;19.50;17.50;;;;;;;;;;5052293;28;20717;-80
2020/12/15 04:43:43;;;;;;;20.55;18.45;;;;;;;;;;5052595;28;20370;-79
2020/12/15 04:46:11;;;;;;;20.95;18.85;;;;;;;;;;5052357;28;20365;-79
2020/12/15 04:48:43;;;;;;;21.67;19.48;;;;;;;;;;5070516;28;20445;-79
2020/12/15 04:51:09;;;;;;;21.70;19.40;;;;;;;;;;5070363;28;20362;-80
2020/12/15 04:53:36;;;;;;;21.38;19.13;;;;;;;;;;5070470;28;20484;-79
2020/12/15 04:56:16;;;;;;;21.57;19.27;;;;;;;;;;5052241;28;20710;-79
2020/12/15 04:58:48;;;;;;;22.25;20.05;;;;;;;;;;5070377;28;20777;-79
2020/12/15 05:01:14;;;;;;;21.98;19.67;;;;;;;;;;5070133;28;20453;-79
2020/12/15 05:03:43;;;;;;;21.42;19.23;;;;;;;;;;5052406;28;20408;-79
2020/12/15 05:06:16;;;;;;;21.90;19.60;;;;;;;;;;5070359;28;20358;-79
2020/12/15 05:08:47;;;;;;;22.17;19.98;;;;;;;;;;5052093;28;20362;-79
2020/12/15 05:11:13;;;;;;;21.63;19.42;;;;;;;;;;5052130;28;20508;-79
2020/12/15 05:13:39;;;;;;;22.90;20.43;;;;;;;;;;5070465;28;20892;-79
2020/12/15 05:16:05;;;;;;;22.50;19.75;;;;;;;;;;5073449;28;20840;-79
2020/12/15 05:18:31;;;;;;;21.67;19.48;;;;;;;;;;5074359;28;20380;-79
2020/12/15 05:20:57;;;;;;;21.67;19.48;;;;;;;;;;5055825;28;20366;-79
2020/12/15 05:23:23;;;;;;;21.08;18.92;;;;;;;;;;5055868;28;20428;-80
2020/12/15 05:25:49;;;;;;;21.58;19.00;;;;;;;;;;5055677;28;20401;-79
2020/12/15 05:28:15;;;;;;;21.55;19.27;;;;;;;;;;5056217;28;20404;-79
2020/12/15 05:30:42;;;;;;;22.27;20.00;;;;;;;;;;5073634;28;20462;-79
2020/12/15 05:33:14;;;;;;;22.60;20.25;;;;;;;;;;5073578;28;20435;-80
2020/12/15 05:38:42;;;;;;;24.17;21.67;;;;;;;;;;5039039;28;20522;-79
2020/12/15 05:41:12;;;;;;;23.05;20.55;;;;;;;;;;5055435;28;20465;-79
2020/12/15 05:43:39;;;;;;;22.65;20.35;;;;;;;;;;5055429;28;20400;-79
2020/12/15 05:46:06;;;;;;;21.75;19.48;;;;;;;;;;5073569;28;20363;-80
2020/12/15 05:48:33;;;;;;;23.55;20.70;;;;;;;;;;5055462;28;20381;-80
2020/12/15 05:50:59;;;;;;;23.67;21.15;;;;;;;;;;5055412;28;20420;-79
2020/12/15 05:53:25;;;;;;;24.50;21.90;;;;;;;;;;5055370;28;20939;-79
2020/12/15 05:55:51;;;;;;;23.70;21.30;;;;;;;;;;5055279;28;20366;-79
2020/12/15 05:58:17;;;;;;;23.77;21.27;;;;;;;;;;5072914;28;20382;-80
2020/12/15 06:00:43;;;;;;;24.43;21.93;;;;;;;;;;5055396;28;20370;-81
2020/12/15 06:03:11;;;;;;;24.17;21.70;;;;;;;;;;5054770;28;20404;-79
2020/12/15 06:05:38;;;;;;;23.92;21.45;;;;;;;;;;5055931;28;20942;-80
2020/12/15 06:08:05;;;;;;;25.45;22.30;;;;;;;;;;5055358;28;20398;-81
2020/12/15 06:10:32;;;;;;;23.55;21.15;;;;;;;;;;5061232;28;20992;-80
2020/12/15 06:12:59;;;;;;;23.48;21.08;;;;;;;;;;5042723;28;20485;-79
2020/12/15 06:15:25;;;;;;;23.95;21.45;;;;;;;;;;5045369;28;20406;-78
2020/12/15 06:17:56;;;;;;;23.70;21.20;;;;;;;;;;5059718;28;20754;-78
2020/12/15 06:20:23;;;;;;;24.80;22.25;;;;;;;;;;5062851;28;20413;-78
2020/12/15 06:22:53;;;;;;;24.40;21.92;;;;;;;;;;5062942;28;20872;-77
2020/12/15 06:25:26;;;;;;;24.80;22.30;;;;;;;;;;5043338;28;20372;-78
2020/12/15 06:28:01;;;;;;;23.73;21.23;;;;;;;;;;5060308;28;20354;-77
2020/12/15 06:30:31;;;;;;;23.63;21.17;;;;;;;;;;5062002;28;20360;-78
2020/12/15 06:32:58;;;;;;;24.30;21.90;;;;;;;;;;5042300;28;20879;-77
2020/12/15 06:35:24;;;;;;;24.80;22.20;;;;;;;;;;5062327;28;20445;-78
2020/12/15 06:37:50;;;;;;;24.70;22.03;;;;;;;;;;5044885;28;20372;-78
2020/12/15 06:40:17;;;;;;;24.23;21.73;;;;;;;;;;5042640;28;20410;-77
2020/12/15 06:42:50;;;;;;;24.90;22.20;;;;;;;;;;5062240;28;20381;-77
2020/12/15 06:45:16;;;;;;;25.67;22.97;;;;;;;;;;5063096;28;20862;-78
2020/12/15 06:47:42;;;;;;;25.98;23.25;;;;;;;;;;5043595;28;20364;-78
2020/12/15 06:50:09;;;;;;;26.60;23.73;;;;;;;;;;5061320;28;20358;-78
2020/12/15 06:52:35;;;;;;;26.17;23.48;;;;;;;;;;5062639;28;20354;-78
2020/12/15 06:55:01;;;;;;;26.25;23.42;;;;;;;;;;5060993;28;20710;-78
2020/12/15 06:57:31;;;;;;;26.13;23.33;;;;;;;;;;5061062;28;20423;-79
2020/12/15 06:59:58;;;;;;;27.63;24.65;;;;;;;;;;5062492;28;20374;-77
2020/12/15 07:02:28;;;;;;;28.42;25.48;;;;;;;;;;5041873;28;20431;-78
2020/12/15 07:05:11;;;;;;;27.67;24.67;;;;;;;;;;5062451;28;20789;-77
2020/12/15 07:07:46;;;;;;;27.00;24.13;;;;;;;;;;5042208;28;20364;-77
2020/12/15 07:10:12;;;;;;;28.88;25.77;;;;;;;;;;5060123;28;20384;-78
2020/12/15 07:12:37;;;;;;;28.70;25.57;;;;;;;;;;5044295;28;21316;-78
2020/12/15 07:15:04;;;;;;;28.07;25.07;;;;;;;;;;5043107;28;20390;-79
2020/12/15 07:17:30;;;;;;;28.30;25.30;;;;;;;;;;5042735;28;20892;-78
2020/12/15 07:19:56;;;;;;;28.40;25.27;;;;;;;;;;5043874;28;20452;-81
2020/12/15 07:22:23;;;;;;;27.60;24.80;;;;;;;;;;5059199;28;20743;-82
2020/12/15 07:24:49;;;;;;;28.23;25.00;;;;;;;;;;5043181;28;20790;-82
2020/12/15 07:27:15;;;;;;;29.63;25.65;;;;;;;;;;5045685;28;20414;-81
2020/12/15 07:29:41;;;;;;;29.73;26.52;;;;;;;;;;5043057;28;20454;-81
2020/12/15 07:32:17;;;;;;;28.53;25.27;;;;;;;;;;5059496;28;20838;-81
2020/12/15 07:34:43;;;;;;;27.67;24.77;;;;;;;;;;5041776;28;20404;-83
2020/12/15 07:37:09;;;;;;;28.17;25.17;;;;;;;;;;5041793;28;20366;-83
2020/12/15 07:39:35;;;;;;;28.52;25.55;;;;;;;;;;5043505;28;20420;-81
2020/12/15 07:42:04;;;;;;;30.33;26.93;;;;;;;;;;5061424;28;20901;-82
2020/12/15 07:44:30;;;;;;;27.75;24.85;;;;;;;;;;5061072;28;20397;-80
2020/12/15 07:46:57;;;;;;;28.40;25.23;;;;;;;;;;5061362;28;21387;-79
2020/12/15 07:49:23;;;;;;;28.17;25.23;;;;;;;;;;5041337;28;20889;-81
2020/12/15 07:51:51;;;;;;;27.92;24.92;;;;;;;;;;5055944;28;20406;-84
2020/12/15 07:54:20;;;;;;;27.95;24.92;;;;;;;;;;5049904;28;20409;-86
2020/12/15 07:56:49;;;;;;;26.77;23.95;;;;;;;;;;5057855;28;20378;-81
2020/12/15 07:59:15;;;;;;;28.40;25.35;;;;;;;;;;5040759;28;20437;-80
2020/12/15 08:01:41;;;;;;;28.35;25.27;;;;;;;;;;5042495;28;20376;-80
2020/12/15 08:04:11;;;;;;;28.67;25.67;;;;;;;;;;5061882;28;20762;-82
2020/12/15 08:06:46;;;;;;;27.60;24.60;;;;;;;;;;5057445;28;20703;-81
2020/12/15 08:09:13;;;;;;;27.50;24.53;;;;;;;;;;5039520;28;20423;-81
2020/12/15 08:11:43;;;;;;;27.50;24.50;;;;;;;;;;5042408;28;20374;-81
2020/12/15 08:14:11;;;;;;;27.40;24.30;;;;;;;;;;5042155;28;20431;-80
2020/12/15 08:16:38;;;;;;;26.80;23.90;;;;;;;;;;5040473;28;20375;-80
2020/12/15 08:19:04;;;;;;;27.23;24.42;;;;;;;;;;5059413;28;20773;-81
2020/12/15 08:21:48;;;;;;;26.85;24.05;;;;;;;;;;5041313;28;20777;-79
2020/12/15 08:24:16;;;;;;;26.20;23.40;;;;;;;;;;5042538;28;20731;-80
2020/12/15 08:26:42;;;;;;;27.15;23.88;;;;;;;;;;5038208;28;20379;-80
2020/12/15 08:29:10;;;;;;;25.50;22.77;;;;;;;;;;5042673;28;20405;-79
2020/12/15 08:31:37;;;;;;;27.35;24.48;;;;;;;;;;5058833;28;20360;-81
2020/12/15 08:34:09;;;;;;;25.83;23.05;;;;;;;;;;5059809;28;20390;-80
2020/12/15 08:36:45;;;;;;;25.75;22.98;;;;;;;;;;5061001;28;20866;-79
2020/12/15 08:39:12;;;;;;;25.98;23.27;;;;;;;;;;5060499;28;20358;-79
2020/12/15 08:41:46;;;;;;;26.75;23.90;;;;;;;;;;5040823;28;20376;-83
2020/12/15 08:44:13;;;;;;;24.80;22.23;;;;;;;;;;5040915;28;20370;-79
2020/12/15 08:46:40;;;;;;;24.60;22.00;;;;;;;;;;5042638;28;20458;-80
2020/12/15 08:49:10;;;;;;;24.85;22.10;;;;;;;;;;5057438;28;20363;-79
2020/12/15 08:51:40;;;;;;;24.52;21.92;;;;;;;;;;5062572;28;20371;-81
2020/12/15 08:54:06;;;;;;;24.13;21.63;;;;;;;;;;5045550;28;20436;-79
2020/12/15 08:56:34;;;;;;;24.52;21.92;;;;;;;;;;5062023;28;20395;-79
2020/12/15 08:59:08;;;;;;;25.00;21.90;;;;;;;;;;5063757;28;20457;-80
2020/12/15 09:01:35;;;;;;;24.08;21.48;;;;;;;;;;5043728;28;20498;-80
2020/12/15 09:04:01;;;;;;;23.48;20.98;;;;;;;;;;5063121;28;20464;-79
2020/12/15 09:06:30;;;;;;;22.67;20.27;;;;;;;;;;5063092;28;20385;-80
2020/12/15 09:08:57;;;;;;;23.08;20.67;;;;;;;;;;5065264;28;20366;-81
2020/12/15 09:11:23;;;;;;;22.70;20.20;;;;;;;;;;5065109;28;20367;-80
2020/12/15 09:14:07;;;;;;;23.23;20.83;;;;;;;;;;5059561;28;20754;-81
2020/12/15 09:16:37;;;;;;;22.97;20.60;;;;;;;;;;5064865;28;20698;-81
2020/12/15 09:19:10;;;;;;;23.42;20.92;;;;;;;;;;5045526;28;20413;-80
2020/12/15 09:21:36;;;;;;;21.63;19.33;;;;;;;;;;5046336;28;20372;-81
2020/12/15 09:24:02;;;;;;;22.25;19.95;;;;;;;;;;5043728;28;20912;-81
2020/12/15 09:26:28;;;;;;;20.90;18.77;;;;;;;;;;5043847;28;20724;-81
2020/12/15 09:28:54;;;;;;;20.60;18.40;;;;;;;;;;5063581;28;20360;-80
2020/12/15 09:31:21;;;;;;;20.25;18.02;;;;;;;;;;5047280;28;20383;-82
2020/12/15 09:33:47;;;;;;;20.40;18.33;;;;;;;;;;5065769;28;20524;-81
2020/12/15 09:36:14;;;;;;;20.33;18.20;;;;;;;;;;5049959;28;20412;-82
2020/12/15 09:38:41;;;;;;;19.85;17.75;;;;;;;;;;5067746;28;20402;-84
2020/12/15 09:41:07;;;;;;;20.27;18.17;;;;;;;;;;5055370;28;20509;-81
2020/12/15 09:43:34;;;;;;;19.83;17.73;;;;;;;;;;5050246;28;20433;-83
2020/12/15 09:46:04;;;;;;;20.75;17.85;;;;;;;;;;5048418;28;20455;-82
2020/12/15 09:48:30;;;;;;;19.80;17.52;;;;;;;;;;5064453;28;20373;-82
2020/12/15 09:50:58;;;;;;;18.58;16.58;;;;;;;;;;5045738;28;20382;-80
2020/12/15 09:53:24;;;;;;;18.90;16.95;;;;;;;;;;5065148;28;20815;-84
2020/12/15 09:55:50;;;;;;;18.37;16.40;;;;;;;;;;5055709;28;20473;-81
2020/12/15 09:58:16;;;;;;;18.13;16.23;;;;;;;;;;5070839;28;20533;-81
2020/12/15 10:00:42;;;;;;;19.63;17.33;;;;;;;;;;5061724;28;20371;-82
2020/12/15 10:03:08;;;;;;;17.25;15.52;;;;;;;;;;5057255;28;20924;-81
2020/12/15 10:05:34;;;;;;;18.23;16.35;;;;;;;;;;5039281;28;20425;-82
2020/12/15 10:08:00;;;;;;;18.65;16.75;;;;;;;;;;5051235;28;20378;-80
2020/12/15 10:10:26;;;;;;;19.35;16.00;;;;;;;;;;5048421;28;20367;-78
2020/12/15 10:12:52;;;;;;;17.65;15.75;;;;;;;;;;5064531;28;20391;-82
2020/12/15 10:15:19;;;;;;;17.98;16.10;;;;;;;;;;5067722;28;20445;-80
2020/12/15 10:17:45;;;;;;;17.65;15.85;;;;;;;;;;5060169;28;20366;-81
2020/12/15 10:20:11;;;;;;;18.08;16.20;;;;;;;;;;5054170;28;20381;-80
2020/12/15 10:22:37;;;;;;;17.58;15.77;;;;;;;;;;5066364;28;20453;-78
2020/12/15 10:25:04;;;;;;;16.98;15.18;;;;;;;;;;5041641;28;20387;-82
2020/12/15 10:27:30;;;;;;;17.60;15.80;;;;;;;;;;5034465;28;20375;-79
2020/12/15 10:29:56;;;;;;;17.42;15.30;;;;;;;;;;5036791;28;20383;-79
2020/12/15 10:32:24;;;;;;;16.92;15.13;;;;;;;;;;5057198;28;20445;-76
2020/12/15 10:34:50;;;;;;;17.77;15.98;;;;;;;;;;5070261;28;20398;-79
2020/12/15 10:37:16;;;;;;;16.85;14.85;;;;;;;;;;5054348;28;20410;-79
2020/12/15 10:39:43;;;;;;;15.73;14.13;;;;;;;;;;5071362;28;20378;-81
2020/12/15 10:42:09;;;;;;;15.20;13.65;;;;;;;;;;5069171;28;20378;-78
2020/12/15 10:44:35;;;;;;;15.95;14.30;;;;;;;;;;5060590;28;20887;-78
2020/12/15 10:47:01;;;;;;;15.10;13.50;;;;;;;;;;5053825;28;20379;-79
2020/12/15 10:49:30;;;;;;;15.50;13.90;;;;;;;;;;5047667;28;20366;-79
2020/12/15 10:51:56;;;;;;;15.25;13.75;;;;;;;;;;5070464;28;20389;-77
2020/12/15 10:54:22;;;;;;;15.48;13.88;;;;;;;;;;5058227;28;20402;-77
2020/12/15 10:56:48;;;;;;;16.33;14.52;;;;;;;;;;5055262;28;20363;-79
2020/12/15 10:59:14;;;;;;;16.75;15.02;;;;;;;;;;5037946;28;20872;-80
2020/12/15 11:01:40;;;;;;;16.48;14.77;;;;;;;;;;5064675;28;20394;-77
2020/12/15 11:04:06;;;;;;;21.02;18.30;;;;;;;;;;5060112;28;20508;-78
2020/12/15 11:06:35;;;;;;;16.90;15.10;;;;;;;;;;5061877;28;20465;-79
2020/12/15 11:09:01;;;;;;;17.00;15.07;;;;;;;;;;5071246;28;20725;-78
2020/12/15 11:11:27;;;;;;;17.50;15.75;;;;;;;;;;5058790;28;20467;-78
2020/12/15 11:13:53;;;;;;;16.65;14.85;;;;;;;;;;5067270;28;20827;-79
2020/12/15 11:16:22;;;;;;;18.23;16.17;;;;;;;;;;5051987;28;20367;-77
2020/12/15 11:18:48;;;;;;;16.83;14.98;;;;;;;;;;5051881;28;20372;-79
2020/12/15 11:21:15;;;;;;;16.65;14.95;;;;;;;;;;5051668;28;20362;-76
2020/12/15 11:23:41;;;;;;;18.27;15.95;;;;;;;;;;5067565;28;20390;-79
2020/12/15 11:26:07;;;;;;;18.55;16.55;;;;;;;;;;5039566;28;20379;-78
2020/12/15 11:28:33;;;;;;;16.63;15.02;;;;;;;;;;5053186;28;20378;-81
2020/12/15 11:30:59;;;;;;;17.48;15.65;;;;;;;;;;5053576;28;20413;-82
2020/12/15 11:33:25;;;;;;;17.35;15.18;;;;;;;;;;5071042;28;20440;-82
2020/12/15 11:35:52;;;;;;;17.73;15.82;;;;;;;;;;5041677;28;20368;-78
2020/12/15 11:38:18;;;;;;;17.33;15.50;;;;;;;;;;5062509;28;20457;-77
2020/12/15 11:40:44;;;;;;;16.80;15.00;;;;;;;;;;5070487;28;20350;-78
2020/12/15 11:43:10;;;;;;;17.02;15.30;;;;;;;;;;5051488;28;20863;-78
2020/12/15 11:45:36;;;;;;;17.10;15.27;;;;;;;;;;5051439;28;20462;-79
2020/12/15 11:48:03;;;;;;;16.45;14.75;;;;;;;;;;5069231;28;20362;-77
2020/12/15 11:50:30;;;;;;;16.73;14.95;;;;;;;;;;5069136;28;20442;-77
2020/12/15 11:52:56;;;;;;;16.87;15.00;;;;;;;;;;5069218;28;20398;-78
2020/12/15 11:55:25;;;;;;;16.23;14.52;;;;;;;;;;5051378;28;20373;-77
2020/12/15 11:57:51;;;;;;;16.75;14.57;;;;;;;;;;5052629;28;20794;-79
2020/12/15 12:00:18;;;;;;;15.85;14.07;;;;;;;;;;5070846;28;20457;-79
2020/12/15 12:02:44;;;;;;;16.63;14.10;;;;;;;;;;5071088;28;20362;-77
2020/12/15 12:05:09;;;;;;;16.90;15.05;;;;;;;;;;5053117;28;20362;-78
2020/12/15 12:07:36;;;;;;;17.02;14.90;;;;;;;;;;5071068;28;20439;-76
2020/12/15 12:10:02;;;;;;;16.38;14.65;;;;;;;;;;5052569;28;20374;-81
2020/12/15 12:12:28;;;;;;;16.20;14.57;;;;;;;;;;5070901;28;20365;-77
2020/12/15 12:14:54;;;;;;;15.18;13.68;;;;;;;;;;5070901;28;20437;-79
2020/12/15 12:17:21;;;;;;;16.02;14.43;;;;;;;;;;5070670;28;20710;-79
2020/12/15 12:19:47;;;;;;;16.27;14.23;;;;;;;;;;5070484;28;20354;-77
2020/12/15 12:22:13;;;;;;;15.83;14.13;;;;;;;;;;5070624;28;20350;-77
2020/12/15 12:24:40;;;;;;;15.67;14.00;;;;;;;;;;5069723;28;20411;-77
2020/12/15 12:27:07;;;;;;;15.90;14.20;;;;;;;;;;5070873;28;20368;-80
2020/12/15 12:29:33;;;;;;;16.52;14.70;;;;;;;;;;5053477;28;20371;-80
2020/12/15 12:31:59;;;;;;;16.80;15.05;;;;;;;;;;5070813;28;20864;-79
2020/12/15 12:34:25;;;;;;;16.77;15.00;;;;;;;;;;5071049;28;20397;-82
2020/12/15 12:36:54;;;;;;;17.30;15.48;;;;;;;;;;5053196;28;20418;-79
2020/12/15 12:39:20;;;;;;;15.77;14.07;;;;;;;;;;5052964;28;20362;-80
2020/12/15 12:41:50;;;;;;;16.63;14.88;;;;;;;;;;5053256;28;20910;-79
2020/12/15 12:44:16;;;;;;;16.08;14.13;;;;;;;;;;5071175;28;20366;-79
2020/12/15 12:46:42;;;;;;;14.77;13.18;;;;;;;;;;5052953;28;20833;-79
2020/12/15 12:49:08;;;;;;;15.93;14.30;;;;;;;;;;5052304;28;20370;-80
2020/12/15 12:51:34;;;;;;;16.15;14.45;;;;;;;;;;5070762;28;20849;-79
2020/12/15 12:54:00;;;;;;;17.50;14.68;;;;;;;;;;5052944;28;20394;-77
2020/12/15 12:56:26;;;;;;;16.50;14.27;;;;;;;;;;5053760;28;20366;-78
2020/12/15 12:58:52;;;;;;;13.88;12.48;;;;;;;;;;5053137;28;20374;-80
2020/12/15 13:01:22;;;;;;;14.52;13.02;;;;;;;;;;5070810;28;20355;-81
2020/12/15 13:03:48;;;;;;;14.88;13.38;;;;;;;;;;5041232;28;20468;-78
2020/12/15 13:06:14;;;;;;;15.18;13.10;;;;;;;;;;5053378;28;20362;-81
2020/12/15 13:08:40;;;;;;;14.40;12.68;;;;;;;;;;5077400;28;20354;-82
2020/12/15 13:11:06;;;;;;;14.38;12.68;;;;;;;;;;5072382;28;20388;-80
2020/12/15 13:13:32;;;;;;;15.48;13.80;;;;;;;;;;5071522;28;20860;-82
2020/12/15 13:15:58;;;;;;;14.10;12.63;;;;;;;;;;5061629;28;20366;-81
2020/12/15 13:18:24;;;;;;;14.43;12.93;;;;;;;;;;5063545;28;20405;-85
2020/12/15 13:20:50;;;;;;;16.10;13.57;;;;;;;;;;5088161;28;20808;-80
2020/12/15 13:23:17;;;;;;;14.30;12.80;;;;;;;;;;5056531;28;20391;-81
2020/12/15 13:25:55;;;;;;;16.93;13.73;;;;;;;;;;5034227;28;20772;-83
2020/12/15 13:28:21;;;;;;;14.35;12.82;;;;;;;;;;5062772;28;20387;-81
2020/12/15 13:30:47;;;;;;;15.60;13.90;;;;;;;;;;5059653;28;20864;-81
2020/12/15 13:33:13;;;;;;;15.40;13.07;;;;;;;;;;5062285;28;20512;-80
2020/12/15 13:35:39;;;;;;;14.63;13.10;;;;;;;;;;5050312;28;20741;-80
2020/12/15 13:38:05;;;;;;;14.77;13.27;;;;;;;;;;5057041;28;20419;-83
2020/12/15 13:40:31;;;;;;;15.53;13.37;;;;;;;;;;5071357;28;20374;-81
2020/12/15 13:42:57;;;;;;;15.90;13.20;;;;;;;;;;5062227;28;20426;-81
2020/12/15 13:45:24;;;;;;;14.93;13.32;;;;;;;;;;5051554;28;20729;-80
2020/12/15 13:47:50;;;;;;;14.60;13.10;;;;;;;;;;5039015;28;20430;-80
2020/12/15 13:50:16;;;;;;;15.43;13.05;;;;;;;;;;5047975;28;20374;-81
2020/12/15 13:52:42;;;;;;;16.20;13.10;;;;;;;;;;5055612;28;20428;-81
2020/12/15 13:55:08;;;;;;;14.32;12.60;;;;;;;;;;5053450;28;20417;-82
2020/12/15 13:57:34;;;;;;;15.13;13.05;;;;;;;;;;5037521;28;20394;-78
2020/12/15 13:59:59;;;;;;;13.90;12.47;;;;;;;;;;5036236;28;20376;-80
2020/12/15 14:02:25;;;;;;;14.40;12.70;;;;;;;;;;5055105;28;20795;-82
2020/12/15 14:04:51;;;;;;;14.43;12.23;;;;;;;;;;5068809;28;20370;-80
2020/12/15 14:07:17;;;;;;;14.07;12.57;;;;;;;;;;5064408;28;20406;-83
2020/12/15 14:09:43;;;;;;;13.77;12.27;;;;;;;;;;5053620;28;20369;-82
2020/12/15 14:12:09;;;;;;;13.60;12.20;;;;;;;;;;5053921;28;20391;-84
2020/12/15 14:14:37;;;;;;;14.00;12.55;;;;;;;;;;5056202;28;20392;-80
2020/12/15 14:17:03;;;;;;;14.45;12.32;;;;;;;;;;5070605;28;20360;-83